sensor_id;sensor_type;location;lat;lon;timestamp;temperature;humidity
3051;DHT22;1535;51.098;6.414;2023-06-22T00:00:49;22.20;99.90
3051;DHT22;1535;51.098;6.414;2023-06-22T00:03:17;22.10;99.90
3051;DHT22;1535;51.098;6.414;2023-06-22T00:05:45;22.10;99.90
3051;DHT22;1535;51.098;6.414;2023-06-22T00:08:12;22.10;99.90
3051;DHT22;1535;51.098;6.414;2023-06-22T00:10:39;22.10;99.90
3051;DHT22;1535;51.098;6.414;2023-06-22T00:13:08;22.00;99.90
3051;DHT22;1535;51.098;6.414;2023-06-22T00:15:36;21.90;99.90
3051;DHT22;1535;51.098;6.414;2023-06-22T00:18:04;21.80;99.90
3051;DHT22;1535;51.098;6.414;2023-06-22T00:20:31;21.80;99.90
3051;DHT22;1535;51.098;6.414;2023-06-22T00:23:02;21.80;99.90
3051;DHT22;1535;51.098;6.414;2023-06-22T00:25:34;21.80;99.90
3051;DHT22;1535;51.098;6.414;2023-06-22T00:28:01;21.70;99.90
3051;DHT22;1535;51.098;6.414;2023-06-22T00:30:30;21.70;99.90
3051;DHT22;1535;51.098;6.414;2023-06-22T00:32:57;21.70;99.90
3051;DHT22;1535;51.098;6.414;2023-06-22T00:35:25;21.70;99.90
3051;DHT22;1535;51.098;6.414;2023-06-22T00:37:54;21.70;99.90
3051;DHT22;1535;51.098;6.414;2023-06-22T00:40:26;21.60;99.90
3051;DHT22;1535;51.098;6.414;2023-06-22T00:42:54;21.60;99.90
3051;DHT22;1535;51.098;6.414;2023-06-22T00:45:21;21.60;99.90
3051;DHT22;1535;51.098;6.414;2023-06-22T00:47:50;21.60;99.90
3051;DHT22;1535;51.098;6.414;2023-06-22T00:50:19;21.50;99.90
3051;DHT22;1535;51.098;6.414;2023-06-22T00:52:48;21.40;99.90
3051;DHT22;1535;51.098;6.414;2023-06-22T00:55:18;21.40;99.90
3051;DHT22;1535;51.098;6.414;2023-06-22T00:57:46;21.40;99.90
3051;DHT22;1535;51.098;6.414;2023-06-22T01:00:13;21.30;99.90
3051;DHT22;1535;51.098;6.414;2023-06-22T01:02:43;21.40;99.90
3051;DHT22;1535;51.098;6.414;2023-06-22T01:05:14;21.40;99.90
3051;DHT22;1535;51.098;6.414;2023-06-22T01:07:48;21.30;99.90
3051;DHT22;1535;51.098;6.414;2023-06-22T01:10:25;21.20;99.90
3051;DHT22;1535;51.098;6.414;2023-06-22T01:12:57;21.20;99.90
3051;DHT22;1535;51.098;6.414;2023-06-22T01:15:28;21.20;99.90
3051;DHT22;1535;51.098;6.414;2023-06-22T01:17:57;21.20;99.90
3051;DHT22;1535;51.098;6.414;2023-06-22T01:20:28;21.10;99.90
3051;DHT22;1535;51.098;6.414;2023-06-22T01:23:06;21.10;99.90
3051;DHT22;1535;51.098;6.414;2023-06-22T01:25:43;21.00;99.90
3051;DHT22;1535;51.098;6.414;2023-06-22T01:28:22;21.00;99.90
3051;DHT22;1535;51.098;6.414;2023-06-22T01:30:52;21.00;99.90
3051;DHT22;1535;51.098;6.414;2023-06-22T01:33:29;21.00;99.90
3051;DHT22;1535;51.098;6.414;2023-06-22T01:35:57;21.00;99.90
3051;DHT22;1535;51.098;6.414;2023-06-22T01:38:25;21.00;99.90
3051;DHT22;1535;51.098;6.414;2023-06-22T01:40:53;20.90;99.90
3051;DHT22;1535;51.098;6.414;2023-06-22T01:43:21;20.90;99.90
3051;DHT22;1535;51.098;6.414;2023-06-22T01:45:48;20.90;99.90
3051;DHT22;1535;51.098;6.414;2023-06-22T01:48:17;21.00;99.90
3051;DHT22;1535;51.098;6.414;2023-06-22T01:50:45;21.00;99.90
3051;DHT22;1535;51.098;6.414;2023-06-22T01:53:12;21.00;99.90
3051;DHT22;1535;51.098;6.414;2023-06-22T01:55:39;21.00;99.90
3051;DHT22;1535;51.098;6.414;2023-06-22T01:58:06;21.00;99.90
3051;DHT22;1535;51.098;6.414;2023-06-22T02:00:36;21.00;99.90
3051;DHT22;1535;51.098;6.414;2023-06-22T02:03:08;21.00;99.90
3051;DHT22;1535;51.098;6.414;2023-06-22T02:05:45;21.00;99.90
3051;DHT22;1535;51.098;6.414;2023-06-22T02:08:19;21.00;99.90
3051;DHT22;1535;51.098;6.414;2023-06-22T02:10:48;21.10;99.90
3051;DHT22;1535;51.098;6.414;2023-06-22T02:13:17;21.00;99.90
3051;DHT22;1535;51.098;6.414;2023-06-22T02:15:45;21.10;99.90
3051;DHT22;1535;51.098;6.414;2023-06-22T02:18:13;21.10;99.90
3051;DHT22;1535;51.098;6.414;2023-06-22T02:20:41;21.10;99.90
3051;DHT22;1535;51.098;6.414;2023-06-22T02:23:09;21.10;99.90
3051;DHT22;1535;51.098;6.414;2023-06-22T02:25:35;21.10;99.90
3051;DHT22;1535;51.098;6.414;2023-06-22T02:28:03;21.20;99.90
3051;DHT22;1535;51.098;6.414;2023-06-22T02:30:31;21.10;99.90
3051;DHT22;1535;51.098;6.414;2023-06-22T02:32:58;21.10;99.90
3051;DHT22;1535;51.098;6.414;2023-06-22T02:35:26;21.10;99.90
3051;DHT22;1535;51.098;6.414;2023-06-22T02:37:54;21.10;99.90
3051;DHT22;1535;51.098;6.414;2023-06-22T02:40:20;21.10;99.90
3051;DHT22;1535;51.098;6.414;2023-06-22T02:42:48;21.10;99.90
3051;DHT22;1535;51.098;6.414;2023-06-22T02:45:15;21.10;99.90
3051;DHT22;1535;51.098;6.414;2023-06-22T02:47:41;21.30;99.90
3051;DHT22;1535;51.098;6.414;2023-06-22T02:50:09;21.20;99.90
3051;DHT22;1535;51.098;6.414;2023-06-22T02:52:36;21.20;99.90
3051;DHT22;1535;51.098;6.414;2023-06-22T02:55:07;21.20;99.90
3051;DHT22;1535;51.098;6.414;2023-06-22T02:57:34;21.30;99.90
3051;DHT22;1535;51.098;6.414;2023-06-22T03:00:03;21.20;99.90
3051;DHT22;1535;51.098;6.414;2023-06-22T03:02:42;21.20;99.90
3051;DHT22;1535;51.098;6.414;2023-06-22T03:05:09;21.10;99.90
3051;DHT22;1535;51.098;6.414;2023-06-22T03:07:39;21.20;99.90
3051;DHT22;1535;51.098;6.414;2023-06-22T03:10:09;21.30;99.90
3051;DHT22;1535;51.098;6.414;2023-06-22T03:12:36;21.30;99.90
3051;DHT22;1535;51.098;6.414;2023-06-22T03:15:05;21.20;99.90
3051;DHT22;1535;51.098;6.414;2023-06-22T03:17:33;21.10;99.90
3051;DHT22;1535;51.098;6.414;2023-06-22T03:20:00;21.10;99.90
3051;DHT22;1535;51.098;6.414;2023-06-22T03:22:28;21.20;99.90
3051;DHT22;1535;51.098;6.414;2023-06-22T03:24:55;21.10;99.90
3051;DHT22;1535;51.098;6.414;2023-06-22T03:27:23;21.10;99.90
3051;DHT22;1535;51.098;6.414;2023-06-22T03:29:50;21.10;99.90
3051;DHT22;1535;51.098;6.414;2023-06-22T03:32:17;21.10;99.90
3051;DHT22;1535;51.098;6.414;2023-06-22T03:34:44;21.10;99.90
3051;DHT22;1535;51.098;6.414;2023-06-22T03:37:13;21.10;99.90
3051;DHT22;1535;51.098;6.414;2023-06-22T03:39:41;21.10;99.90
3051;DHT22;1535;51.098;6.414;2023-06-22T03:42:08;21.10;99.90
3051;DHT22;1535;51.098;6.414;2023-06-22T03:44:37;21.20;99.90
3051;DHT22;1535;51.098;6.414;2023-06-22T03:47:05;21.20;99.90
3051;DHT22;1535;51.098;6.414;2023-06-22T03:49:32;21.20;99.90
3051;DHT22;1535;51.098;6.414;2023-06-22T03:52:00;21.20;99.90
3051;DHT22;1535;51.098;6.414;2023-06-22T03:54:27;21.30;99.90
3051;DHT22;1535;51.098;6.414;2023-06-22T03:56:54;21.40;99.90
3051;DHT22;1535;51.098;6.414;2023-06-22T03:59:20;21.40;99.90
3051;DHT22;1535;51.098;6.414;2023-06-22T04:01:49;21.30;99.90
3051;DHT22;1535;51.098;6.414;2023-06-22T04:04:17;21.40;99.90
3051;DHT22;1535;51.098;6.414;2023-06-22T04:06:44;21.30;99.90
3051;DHT22;1535;51.098;6.414;2023-06-22T04:09:11;21.40;99.90
3051;DHT22;1535;51.098;6.414;2023-06-22T04:11:38;21.50;99.90
3051;DHT22;1535;51.098;6.414;2023-06-22T04:14:05;21.40;99.90
3051;DHT22;1535;51.098;6.414;2023-06-22T04:16:33;21.50;99.90
3051;DHT22;1535;51.098;6.414;2023-06-22T04:19:01;21.50;99.90
3051;DHT22;1535;51.098;6.414;2023-06-22T04:21:29;21.40;99.90
3051;DHT22;1535;51.098;6.414;2023-06-22T04:23:56;21.40;99.90
3051;DHT22;1535;51.098;6.414;2023-06-22T04:26:23;21.30;99.90
3051;DHT22;1535;51.098;6.414;2023-06-22T04:28:50;21.40;99.90
3051;DHT22;1535;51.098;6.414;2023-06-22T04:31:21;21.50;99.90
3051;DHT22;1535;51.098;6.414;2023-06-22T04:33:57;21.40;99.90
3051;DHT22;1535;51.098;6.414;2023-06-22T04:36:35;21.20;99.90
3051;DHT22;1535;51.098;6.414;2023-06-22T04:39:05;21.00;99.90
3051;DHT22;1535;51.098;6.414;2023-06-22T04:41:32;20.90;99.90
3051;DHT22;1535;51.098;6.414;2023-06-22T04:44:10;20.70;99.90
3051;DHT22;1535;51.098;6.414;2023-06-22T04:46:37;20.70;99.90
3051;DHT22;1535;51.098;6.414;2023-06-22T04:49:05;20.70;99.90
3051;DHT22;1535;51.098;6.414;2023-06-22T04:51:40;20.60;99.90
3051;DHT22;1535;51.098;6.414;2023-06-22T04:54:08;20.70;99.90
3051;DHT22;1535;51.098;6.414;2023-06-22T04:56:35;20.60;99.90
3051;DHT22;1535;51.098;6.414;2023-06-22T04:59:02;20.60;99.90
3051;DHT22;1535;51.098;6.414;2023-06-22T05:01:30;20.60;99.90
3051;DHT22;1535;51.098;6.414;2023-06-22T05:03:57;20.60;99.90
3051;DHT22;1535;51.098;6.414;2023-06-22T05:06:27;20.70;99.90
3051;DHT22;1535;51.098;6.414;2023-06-22T05:08:56;20.70;99.90
3051;DHT22;1535;51.098;6.414;2023-06-22T05:11:24;20.80;99.90
3051;DHT22;1535;51.098;6.414;2023-06-22T05:13:51;20.90;99.90
3051;DHT22;1535;51.098;6.414;2023-06-22T05:16:18;20.90;99.90
3051;DHT22;1535;51.098;6.414;2023-06-22T05:18:51;21.00;99.90
3051;DHT22;1535;51.098;6.414;2023-06-22T05:21:22;21.20;99.90
3051;DHT22;1535;51.098;6.414;2023-06-22T05:23:50;21.40;99.90
3051;DHT22;1535;51.098;6.414;2023-06-22T05:26:19;21.50;99.90
3051;DHT22;1535;51.098;6.414;2023-06-22T05:28:46;21.70;99.90
3051;DHT22;1535;51.098;6.414;2023-06-22T05:31:13;21.70;99.90
3051;DHT22;1535;51.098;6.414;2023-06-22T05:33:40;21.70;99.90
3051;DHT22;1535;51.098;6.414;2023-06-22T05:36:07;21.70;99.90
3051;DHT22;1535;51.098;6.414;2023-06-22T05:38:36;21.70;99.90
3051;DHT22;1535;51.098;6.414;2023-06-22T05:41:04;21.80;99.90
3051;DHT22;1535;51.098;6.414;2023-06-22T05:43:33;22.00;99.90
3051;DHT22;1535;51.098;6.414;2023-06-22T05:46:01;21.80;99.90
3051;DHT22;1535;51.098;6.414;2023-06-22T05:48:28;22.00;99.90
3051;DHT22;1535;51.098;6.414;2023-06-22T05:50:56;21.90;99.90
3051;DHT22;1535;51.098;6.414;2023-06-22T05:53:23;21.90;99.90
3051;DHT22;1535;51.098;6.414;2023-06-22T05:55:49;21.70;99.90
3051;DHT22;1535;51.098;6.414;2023-06-22T05:58:17;21.80;99.90
3051;DHT22;1535;51.098;6.414;2023-06-22T06:00:45;21.90;99.90
3051;DHT22;1535;51.098;6.414;2023-06-22T06:03:13;22.00;99.90
3051;DHT22;1535;51.098;6.414;2023-06-22T06:05:43;22.10;99.90
3051;DHT22;1535;51.098;6.414;2023-06-22T06:08:10;22.20;99.90
3051;DHT22;1535;51.098;6.414;2023-06-22T06:10:37;22.40;99.90
3051;DHT22;1535;51.098;6.414;2023-06-22T06:13:04;22.50;99.90
3051;DHT22;1535;51.098;6.414;2023-06-22T06:15:31;22.50;99.90
3051;DHT22;1535;51.098;6.414;2023-06-22T06:18:00;22.60;99.90
3051;DHT22;1535;51.098;6.414;2023-06-22T06:20:28;22.70;99.90
3051;DHT22;1535;51.098;6.414;2023-06-22T06:22:55;22.70;99.90
3051;DHT22;1535;51.098;6.414;2023-06-22T06:25:22;22.70;99.90
3051;DHT22;1535;51.098;6.414;2023-06-22T06:27:51;22.80;99.90
3051;DHT22;1535;51.098;6.414;2023-06-22T06:30:20;22.60;99.90
3051;DHT22;1535;51.098;6.414;2023-06-22T06:32:49;22.50;99.90
3051;DHT22;1535;51.098;6.414;2023-06-22T06:35:17;22.60;99.90
3051;DHT22;1535;51.098;6.414;2023-06-22T06:37:48;22.40;99.90
3051;DHT22;1535;51.098;6.414;2023-06-22T06:40:16;22.30;99.90
3051;DHT22;1535;51.098;6.414;2023-06-22T06:42:44;21.90;99.90
3051;DHT22;1535;51.098;6.414;2023-06-22T06:45:14;21.70;99.90
3051;DHT22;1535;51.098;6.414;2023-06-22T06:47:41;21.50;99.90
3051;DHT22;1535;51.098;6.414;2023-06-22T06:50:09;21.30;99.90
3051;DHT22;1535;51.098;6.414;2023-06-22T06:52:37;21.20;99.90
3051;DHT22;1535;51.098;6.414;2023-06-22T06:55:05;21.00;99.90
3051;DHT22;1535;51.098;6.414;2023-06-22T06:57:35;21.00;99.90
3051;DHT22;1535;51.098;6.414;2023-06-22T07:00:03;21.10;99.90
3051;DHT22;1535;51.098;6.414;2023-06-22T07:02:35;21.30;99.90
3051;DHT22;1535;51.098;6.414;2023-06-22T07:05:01;21.40;99.90
3051;DHT22;1535;51.098;6.414;2023-06-22T07:07:30;21.40;99.90
3051;DHT22;1535;51.098;6.414;2023-06-22T07:09:59;21.60;99.90
3051;DHT22;1535;51.098;6.414;2023-06-22T07:12:26;21.70;99.90
3051;DHT22;1535;51.098;6.414;2023-06-22T07:14:53;22.00;99.90
3051;DHT22;1535;51.098;6.414;2023-06-22T07:17:20;22.30;99.90
3051;DHT22;1535;51.098;6.414;2023-06-22T07:19:47;22.40;99.90
3051;DHT22;1535;51.098;6.414;2023-06-22T07:22:14;22.50;99.90
3051;DHT22;1535;51.098;6.414;2023-06-22T07:24:41;22.70;99.90
3051;DHT22;1535;51.098;6.414;2023-06-22T07:27:09;22.90;99.90
3051;DHT22;1535;51.098;6.414;2023-06-22T07:29:38;22.90;99.90
3051;DHT22;1535;51.098;6.414;2023-06-22T07:32:06;23.20;99.90
3051;DHT22;1535;51.098;6.414;2023-06-22T07:34:34;23.70;99.90
3051;DHT22;1535;51.098;6.414;2023-06-22T07:37:02;23.90;99.90
3051;DHT22;1535;51.098;6.414;2023-06-22T07:39:30;24.00;99.90
3051;DHT22;1535;51.098;6.414;2023-06-22T07:41:56;24.10;99.90
3051;DHT22;1535;51.098;6.414;2023-06-22T07:44:25;24.50;99.90
3051;DHT22;1535;51.098;6.414;2023-06-22T07:46:52;24.40;99.90
3051;DHT22;1535;51.098;6.414;2023-06-22T07:49:19;24.70;99.90
3051;DHT22;1535;51.098;6.414;2023-06-22T07:51:46;24.80;99.90
3051;DHT22;1535;51.098;6.414;2023-06-22T07:54:13;25.00;99.90
3051;DHT22;1535;51.098;6.414;2023-06-22T07:56:41;25.30;99.90
3051;DHT22;1535;51.098;6.414;2023-06-22T07:59:08;25.10;99.90
3051;DHT22;1535;51.098;6.414;2023-06-22T08:01:36;25.20;99.90
3051;DHT22;1535;51.098;6.414;2023-06-22T08:04:04;25.30;99.90
3051;DHT22;1535;51.098;6.414;2023-06-22T08:06:32;25.50;99.90
3051;DHT22;1535;51.098;6.414;2023-06-22T08:08:59;26.40;99.90
3051;DHT22;1535;51.098;6.414;2023-06-22T08:11:26;26.50;99.90
3051;DHT22;1535;51.098;6.414;2023-06-22T08:13:53;27.00;99.90
3051;DHT22;1535;51.098;6.414;2023-06-22T08:16:23;26.70;99.90
3051;DHT22;1535;51.098;6.414;2023-06-22T08:18:52;26.60;99.90
3051;DHT22;1535;51.098;6.414;2023-06-22T08:21:18;26.50;99.90
3051;DHT22;1535;51.098;6.414;2023-06-22T08:23:45;27.00;99.90
3051;DHT22;1535;51.098;6.414;2023-06-22T08:26:12;27.10;99.90
3051;DHT22;1535;51.098;6.414;2023-06-22T08:28:39;27.50;99.90
3051;DHT22;1535;51.098;6.414;2023-06-22T08:31:06;27.60;99.90
3051;DHT22;1535;51.098;6.414;2023-06-22T08:33:33;27.50;99.90
3051;DHT22;1535;51.098;6.414;2023-06-22T08:36:01;27.60;99.90
3051;DHT22;1535;51.098;6.414;2023-06-22T08:38:28;27.70;99.90
3051;DHT22;1535;51.098;6.414;2023-06-22T08:40:55;27.70;99.90
3051;DHT22;1535;51.098;6.414;2023-06-22T08:43:22;28.10;99.90
3051;DHT22;1535;51.098;6.414;2023-06-22T08:45:49;28.50;99.90
3051;DHT22;1535;51.098;6.414;2023-06-22T08:48:16;28.40;99.90
3051;DHT22;1535;51.098;6.414;2023-06-22T08:50:43;28.80;99.90
3051;DHT22;1535;51.098;6.414;2023-06-22T08:53:11;29.20;99.90
3051;DHT22;1535;51.098;6.414;2023-06-22T08:55:38;29.70;99.90
3051;DHT22;1535;51.098;6.414;2023-06-22T08:58:05;30.10;99.90
3051;DHT22;1535;51.098;6.414;2023-06-22T09:00:32;30.40;99.90
3051;DHT22;1535;51.098;6.414;2023-06-22T09:03:00;30.10;99.90
3051;DHT22;1535;51.098;6.414;2023-06-22T09:05:28;29.80;99.90
3051;DHT22;1535;51.098;6.414;2023-06-22T09:07:56;30.50;99.90
3051;DHT22;1535;51.098;6.414;2023-06-22T09:10:25;30.70;99.90
3051;DHT22;1535;51.098;6.414;2023-06-22T09:12:52;30.50;99.90
3051;DHT22;1535;51.098;6.414;2023-06-22T09:15:19;30.50;99.90
3051;DHT22;1535;51.098;6.414;2023-06-22T09:17:46;30.50;99.90
3051;DHT22;1535;51.098;6.414;2023-06-22T09:20:13;31.10;99.90
3051;DHT22;1535;51.098;6.414;2023-06-22T09:22:40;31.60;99.90
3051;DHT22;1535;51.098;6.414;2023-06-22T09:25:07;31.60;99.90
3051;DHT22;1535;51.098;6.414;2023-06-22T09:27:35;32.30;99.90
3051;DHT22;1535;51.098;6.414;2023-06-22T09:30:04;32.80;99.90
3051;DHT22;1535;51.098;6.414;2023-06-22T09:32:31;32.80;99.90
3051;DHT22;1535;51.098;6.414;2023-06-22T09:34:58;32.40;99.90
3051;DHT22;1535;51.098;6.414;2023-06-22T09:37:25;32.20;99.90
3051;DHT22;1535;51.098;6.414;2023-06-22T09:39:52;31.90;99.90
3051;DHT22;1535;51.098;6.414;2023-06-22T09:42:19;31.90;99.90
3051;DHT22;1535;51.098;6.414;2023-06-22T09:44:47;32.30;99.90
3051;DHT22;1535;51.098;6.414;2023-06-22T09:47:14;32.80;99.90
3051;DHT22;1535;51.098;6.414;2023-06-22T09:49:41;32.60;99.90
3051;DHT22;1535;51.098;6.414;2023-06-22T09:52:08;31.70;99.90
3051;DHT22;1535;51.098;6.414;2023-06-22T09:54:37;31.80;99.90
3051;DHT22;1535;51.098;6.414;2023-06-22T09:57:05;31.60;99.90
3051;DHT22;1535;51.098;6.414;2023-06-22T09:59:32;31.90;99.90
3051;DHT22;1535;51.098;6.414;2023-06-22T10:02:00;31.40;99.90
3051;DHT22;1535;51.098;6.414;2023-06-22T10:04:27;30.70;99.90
3051;DHT22;1535;51.098;6.414;2023-06-22T10:06:55;30.80;99.90
3051;DHT22;1535;51.098;6.414;2023-06-22T10:09:23;30.30;99.90
3051;DHT22;1535;51.098;6.414;2023-06-22T10:11:50;30.00;99.90
3051;DHT22;1535;51.098;6.414;2023-06-22T10:14:16;29.50;99.90
3051;DHT22;1535;51.098;6.414;2023-06-22T10:16:43;29.80;99.90
3051;DHT22;1535;51.098;6.414;2023-06-22T10:19:11;29.80;99.90
3051;DHT22;1535;51.098;6.414;2023-06-22T10:21:38;29.80;99.90
3051;DHT22;1535;51.098;6.414;2023-06-22T10:24:05;29.70;99.90
3051;DHT22;1535;51.098;6.414;2023-06-22T10:26:32;29.70;99.90
3051;DHT22;1535;51.098;6.414;2023-06-22T10:28:59;29.70;99.90
3051;DHT22;1535;51.098;6.414;2023-06-22T10:31:26;29.90;99.90
3051;DHT22;1535;51.098;6.414;2023-06-22T10:33:53;29.90;99.90
3051;DHT22;1535;51.098;6.414;2023-06-22T10:36:22;29.70;99.90
3051;DHT22;1535;51.098;6.414;2023-06-22T10:38:49;29.10;99.90
3051;DHT22;1535;51.098;6.414;2023-06-22T10:41:16;28.50;99.90
3051;DHT22;1535;51.098;6.414;2023-06-22T10:43:43;28.00;99.90
3051;DHT22;1535;51.098;6.414;2023-06-22T10:46:09;27.40;99.90
3051;DHT22;1535;51.098;6.414;2023-06-22T10:48:36;26.90;99.90
3051;DHT22;1535;51.098;6.414;2023-06-22T10:51:04;26.50;99.90
3051;DHT22;1535;51.098;6.414;2023-06-22T10:53:32;26.20;99.90
3051;DHT22;1535;51.098;6.414;2023-06-22T10:55:59;26.00;99.90
3051;DHT22;1535;51.098;6.414;2023-06-22T10:58:27;25.70;99.90
3051;DHT22;1535;51.098;6.414;2023-06-22T11:00:54;25.40;99.90
3051;DHT22;1535;51.098;6.414;2023-06-22T11:03:21;24.90;99.90
3051;DHT22;1535;51.098;6.414;2023-06-22T11:05:48;24.60;99.90
3051;DHT22;1535;51.098;6.414;2023-06-22T11:08:15;24.40;99.90
3051;DHT22;1535;51.098;6.414;2023-06-22T11:10:44;24.20;99.90
3051;DHT22;1535;51.098;6.414;2023-06-22T11:13:10;24.00;99.90
3051;DHT22;1535;51.098;6.414;2023-06-22T11:15:38;23.50;99.90
3051;DHT22;1535;51.098;6.414;2023-06-22T11:18:05;23.30;99.90
3051;DHT22;1535;51.098;6.414;2023-06-22T11:20:33;23.20;99.90
3051;DHT22;1535;51.098;6.414;2023-06-22T11:23:04;23.00;99.90
3051;DHT22;1535;51.098;6.414;2023-06-22T11:25:32;22.90;99.90
3051;DHT22;1535;51.098;6.414;2023-06-22T11:28:03;22.90;99.90
3051;DHT22;1535;51.098;6.414;2023-06-22T11:30:30;22.90;99.90
3051;DHT22;1535;51.098;6.414;2023-06-22T11:32:58;22.90;99.90
3051;DHT22;1535;51.098;6.414;2023-06-22T11:35:26;22.80;99.90
3051;DHT22;1535;51.098;6.414;2023-06-22T11:37:52;23.00;99.90
3051;DHT22;1535;51.098;6.414;2023-06-22T11:40:19;23.00;99.90
3051;DHT22;1535;51.098;6.414;2023-06-22T11:42:48;23.10;99.90
3051;DHT22;1535;51.098;6.414;2023-06-22T11:45:16;23.40;99.90
3051;DHT22;1535;51.098;6.414;2023-06-22T11:47:44;23.50;99.90
3051;DHT22;1535;51.098;6.414;2023-06-22T11:50:11;23.50;99.90
3051;DHT22;1535;51.098;6.414;2023-06-22T11:52:37;24.00;99.90
3051;DHT22;1535;51.098;6.414;2023-06-22T11:55:05;24.50;99.90
3051;DHT22;1535;51.098;6.414;2023-06-22T11:57:35;25.10;99.90
3051;DHT22;1535;51.098;6.414;2023-06-22T12:00:03;25.30;99.90
3051;DHT22;1535;51.098;6.414;2023-06-22T12:02:40;25.50;99.90
3051;DHT22;1535;51.098;6.414;2023-06-22T12:05:07;25.40;99.90
3051;DHT22;1535;51.098;6.414;2023-06-22T12:07:34;25.60;99.90
3051;DHT22;1535;51.098;6.414;2023-06-22T12:10:02;25.60;99.90
3051;DHT22;1535;51.098;6.414;2023-06-22T12:12:29;25.30;99.90
3051;DHT22;1535;51.098;6.414;2023-06-22T12:14:55;25.50;99.90
3051;DHT22;1535;51.098;6.414;2023-06-22T12:17:22;25.60;99.90
3051;DHT22;1535;51.098;6.414;2023-06-22T12:19:50;25.60;99.90
3051;DHT22;1535;51.098;6.414;2023-06-22T12:22:17;25.50;99.90
3051;DHT22;1535;51.098;6.414;2023-06-22T12:24:44;25.50;99.90
3051;DHT22;1535;51.098;6.414;2023-06-22T12:27:11;25.60;99.90
3051;DHT22;1535;51.098;6.414;2023-06-22T12:29:42;25.30;99.90
3051;DHT22;1535;51.098;6.414;2023-06-22T12:32:08;25.20;99.90
3051;DHT22;1535;51.098;6.414;2023-06-22T12:34:38;25.00;99.90
3051;DHT22;1535;51.098;6.414;2023-06-22T12:37:06;25.10;99.90
3051;DHT22;1535;51.098;6.414;2023-06-22T12:39:33;25.40;99.90
3051;DHT22;1535;51.098;6.414;2023-06-22T12:42:00;25.40;99.90
3051;DHT22;1535;51.098;6.414;2023-06-22T12:44:27;25.60;99.90
3051;DHT22;1535;51.098;6.414;2023-06-22T12:46:54;25.70;99.90
3051;DHT22;1535;51.098;6.414;2023-06-22T12:49:21;25.70;99.90
3051;DHT22;1535;51.098;6.414;2023-06-22T12:51:48;25.70;99.90
3051;DHT22;1535;51.098;6.414;2023-06-22T12:54:16;25.90;99.90
3051;DHT22;1535;51.098;6.414;2023-06-22T12:56:44;26.00;99.90
3051;DHT22;1535;51.098;6.414;2023-06-22T12:59:10;25.70;99.90
3051;DHT22;1535;51.098;6.414;2023-06-22T13:01:38;25.50;99.90
3051;DHT22;1535;51.098;6.414;2023-06-22T13:04:04;25.80;99.90
3051;DHT22;1535;51.098;6.414;2023-06-22T13:06:32;26.10;99.90
3051;DHT22;1535;51.098;6.414;2023-06-22T13:08:59;26.30;99.90
3051;DHT22;1535;51.098;6.414;2023-06-22T13:11:27;26.30;99.90
3051;DHT22;1535;51.098;6.414;2023-06-22T13:13:54;26.50;99.90
3051;DHT22;1535;51.098;6.414;2023-06-22T13:16:21;26.50;99.90
3051;DHT22;1535;51.098;6.414;2023-06-22T13:18:48;26.60;99.90
3051;DHT22;1535;51.098;6.414;2023-06-22T13:21:15;26.50;99.90
3051;DHT22;1535;51.098;6.414;2023-06-22T13:23:43;26.50;99.90
3051;DHT22;1535;51.098;6.414;2023-06-22T13:26:10;26.50;99.90
3051;DHT22;1535;51.098;6.414;2023-06-22T13:28:38;26.20;99.90
3051;DHT22;1535;51.098;6.414;2023-06-22T13:31:05;26.20;99.90
3051;DHT22;1535;51.098;6.414;2023-06-22T13:33:32;26.30;99.90
3051;DHT22;1535;51.098;6.414;2023-06-22T13:35:58;26.10;99.90
3051;DHT22;1535;51.098;6.414;2023-06-22T13:38:26;25.90;99.90
3051;DHT22;1535;51.098;6.414;2023-06-22T13:40:52;25.60;99.90
3051;DHT22;1535;51.098;6.414;2023-06-22T13:43:21;25.30;99.90
3051;DHT22;1535;51.098;6.414;2023-06-22T13:45:50;25.30;99.90
3051;DHT22;1535;51.098;6.414;2023-06-22T13:48:17;25.30;99.90
3051;DHT22;1535;51.098;6.414;2023-06-22T13:50:44;25.30;99.90
3051;DHT22;1535;51.098;6.414;2023-06-22T13:53:11;25.10;99.90
3051;DHT22;1535;51.098;6.414;2023-06-22T13:55:38;25.00;99.90
3051;DHT22;1535;51.098;6.414;2023-06-22T13:58:05;25.10;99.90
3051;DHT22;1535;51.098;6.414;2023-06-22T14:00:32;25.10;99.90
3051;DHT22;1535;51.098;6.414;2023-06-22T14:03:00;25.10;99.90
3051;DHT22;1535;51.098;6.414;2023-06-22T14:05:31;25.10;99.90
3051;DHT22;1535;51.098;6.414;2023-06-22T14:07:57;24.90;99.90
3051;DHT22;1535;51.098;6.414;2023-06-22T14:10:24;24.70;99.90
3051;DHT22;1535;51.098;6.414;2023-06-22T14:12:51;24.40;99.90
3051;DHT22;1535;51.098;6.414;2023-06-22T14:15:18;24.50;99.90
3051;DHT22;1535;51.098;6.414;2023-06-22T14:17:45;24.80;99.90
3051;DHT22;1535;51.098;6.414;2023-06-22T14:20:14;24.70;99.90
3051;DHT22;1535;51.098;6.414;2023-06-22T14:22:41;24.70;99.90
3051;DHT22;1535;51.098;6.414;2023-06-22T14:25:08;24.50;99.90
3051;DHT22;1535;51.098;6.414;2023-06-22T14:27:35;24.50;99.90
3051;DHT22;1535;51.098;6.414;2023-06-22T14:30:01;24.50;99.90
3051;DHT22;1535;51.098;6.414;2023-06-22T14:32:28;24.20;99.90
3051;DHT22;1535;51.098;6.414;2023-06-22T14:34:56;24.00;99.90
3051;DHT22;1535;51.098;6.414;2023-06-22T14:37:24;23.90;99.90
3051;DHT22;1535;51.098;6.414;2023-06-22T14:39:51;23.90;99.90
3051;DHT22;1535;51.098;6.414;2023-06-22T14:42:17;24.00;99.90
3051;DHT22;1535;51.098;6.414;2023-06-22T14:44:58;24.00;99.90
3051;DHT22;1535;51.098;6.414;2023-06-22T14:47:25;24.00;99.90
3051;DHT22;1535;51.098;6.414;2023-06-22T14:49:51;23.90;99.90
3051;DHT22;1535;51.098;6.414;2023-06-22T14:52:18;23.90;99.90
3051;DHT22;1535;51.098;6.414;2023-06-22T14:54:46;23.70;99.90
3051;DHT22;1535;51.098;6.414;2023-06-22T14:57:13;23.70;99.90
3051;DHT22;1535;51.098;6.414;2023-06-22T14:59:43;23.60;99.90
3051;DHT22;1535;51.098;6.414;2023-06-22T15:02:10;23.50;99.90
3051;DHT22;1535;51.098;6.414;2023-06-22T15:04:36;23.50;99.90
3051;DHT22;1535;51.098;6.414;2023-06-22T15:07:04;23.50;99.90
3051;DHT22;1535;51.098;6.414;2023-06-22T15:09:31;23.40;99.90
3051;DHT22;1535;51.098;6.414;2023-06-22T15:12:00;23.20;99.90
3051;DHT22;1535;51.098;6.414;2023-06-22T15:14:31;22.90;99.90
3051;DHT22;1535;51.098;6.414;2023-06-22T15:16:58;22.70;99.90
3051;DHT22;1535;51.098;6.414;2023-06-22T15:19:25;22.50;99.90
3051;DHT22;1535;51.098;6.414;2023-06-22T15:21:52;22.10;99.90
3051;DHT22;1535;51.098;6.414;2023-06-22T15:24:19;21.90;99.90
3051;DHT22;1535;51.098;6.414;2023-06-22T15:26:45;21.70;99.90
3051;DHT22;1535;51.098;6.414;2023-06-22T15:29:14;21.60;99.90
3051;DHT22;1535;51.098;6.414;2023-06-22T15:31:41;21.40;99.90
3051;DHT22;1535;51.098;6.414;2023-06-22T15:34:08;21.30;99.90
3051;DHT22;1535;51.098;6.414;2023-06-22T15:36:35;21.20;99.90
3051;DHT22;1535;51.098;6.414;2023-06-22T15:39:02;21.20;99.90
3051;DHT22;1535;51.098;6.414;2023-06-22T15:41:29;21.20;99.90
3051;DHT22;1535;51.098;6.414;2023-06-22T15:43:55;21.20;99.90
3051;DHT22;1535;51.098;6.414;2023-06-22T15:46:24;21.20;99.90
3051;DHT22;1535;51.098;6.414;2023-06-22T15:48:51;21.10;99.90
3051;DHT22;1535;51.098;6.414;2023-06-22T15:51:18;20.90;99.90
3051;DHT22;1535;51.098;6.414;2023-06-22T15:53:45;20.60;99.90
3051;DHT22;1535;51.098;6.414;2023-06-22T15:56:12;20.40;99.90
3051;DHT22;1535;51.098;6.414;2023-06-22T15:58:39;20.20;99.90
3051;DHT22;1535;51.098;6.414;2023-06-22T16:01:06;20.10;99.90
3051;DHT22;1535;51.098;6.414;2023-06-22T16:03:35;19.80;99.90
3051;DHT22;1535;51.098;6.414;2023-06-22T16:06:04;19.70;99.90